createdAt,value
2023-03-02T00:00:57.429Z,20.63
2023-03-02T00:03:23.821Z,21.40
2023-03-02T00:05:50.224Z,18.50
2023-03-02T00:08:18.180Z,19.13
2023-03-02T00:10:44.677Z,18.33
2023-03-02T00:13:11.769Z,19.35
2023-03-02T00:15:38.064Z,17.83
2023-03-02T00:18:04.350Z,17.65
2023-03-02T00:20:30.620Z,21.95
2023-03-02T00:22:56.816Z,21.33
2023-03-02T00:25:23.247Z,20.00
2023-03-02T00:27:50.237Z,19.92
2023-03-02T00:30:16.853Z,18.88
2023-03-02T00:32:43.138Z,15.57
2023-03-02T00:35:09.518Z,16.40
2023-03-02T00:37:36.381Z,19.67
2023-03-02T00:40:05.223Z,17.83
2023-03-02T00:42:31.605Z,17.92
2023-03-02T00:44:59.117Z,18.25
2023-03-02T00:47:25.308Z,18.13
2023-03-02T00:49:51.535Z,18.70
2023-03-02T00:52:17.874Z,19.88
2023-03-02T00:54:44.195Z,20.25
2023-03-02T00:57:10.420Z,17.25
2023-03-02T00:59:37.375Z,17.52
2023-03-02T01:02:03.640Z,16.58
2023-03-02T01:04:31.988Z,18.35
2023-03-02T01:06:59.490Z,17.10
2023-03-02T01:09:26.191Z,21.63
2023-03-02T01:11:52.402Z,17.75
2023-03-02T01:14:18.842Z,19.75
2023-03-02T01:16:45.311Z,17.20
2023-03-02T01:19:11.538Z,16.85
2023-03-02T01:21:37.733Z,18.55
2023-03-02T01:24:04.148Z,19.00
2023-03-02T01:26:30.669Z,17.05
2023-03-02T01:28:57.514Z,16.67
2023-03-02T01:31:24.866Z,16.08
2023-03-02T01:33:51.525Z,17.75
2023-03-02T01:36:17.849Z,18.85
2023-03-02T01:38:44.197Z,18.08
2023-03-02T01:41:10.913Z,18.27
2023-03-02T01:43:37.506Z,17.30
2023-03-02T01:46:17.634Z,21.58
2023-03-02T01:48:46.856Z,18.60
2023-03-02T01:51:15.882Z,16.33
2023-03-02T01:53:46.491Z,18.35
2023-03-02T01:56:14.651Z,21.02
2023-03-02T01:58:41.043Z,17.17
2023-03-02T02:01:15.257Z,18.77
2023-03-02T02:03:42.802Z,18.63
2023-03-02T02:06:12.277Z,19.83
2023-03-02T02:08:38.973Z,17.42
2023-03-02T02:11:05.815Z,15.00
2023-03-02T02:13:32.210Z,14.77
2023-03-02T02:15:58.419Z,16.90
2023-03-02T02:18:25.265Z,17.42
2023-03-02T02:20:52.432Z,18.60
2023-03-02T02:23:27.319Z,19.33
2023-03-02T02:25:53.934Z,16.00
2023-03-02T02:28:25.139Z,18.08
2023-03-02T02:33:21.039Z,17.27
2023-03-02T02:35:47.742Z,18.13
2023-03-02T02:38:15.724Z,17.75
2023-03-02T02:40:41.987Z,15.50
2023-03-02T02:43:11.288Z,18.38
2023-03-02T02:45:37.521Z,17.27
2023-03-02T02:48:03.873Z,15.27
2023-03-02T02:50:32.099Z,14.60
2023-03-02T02:53:05.373Z,18.02
2023-03-02T02:55:32.674Z,16.85
2023-03-02T02:58:00.794Z,15.82
2023-03-02T03:00:27.149Z,14.88
2023-03-02T03:02:56.399Z,15.65
2023-03-02T03:05:22.641Z,17.83
2023-03-02T03:07:48.887Z,16.10
2023-03-02T03:10:21.028Z,18.42
2023-03-02T03:12:47.464Z,16.85
2023-03-02T03:15:14.234Z,18.33
2023-03-02T03:17:40.805Z,17.50
2023-03-02T03:20:10.430Z,19.13
2023-03-02T03:22:38.013Z,15.38
2023-03-02T03:25:05.088Z,18.10
2023-03-02T03:27:31.288Z,17.40
2023-03-02T03:29:57.544Z,19.02
2023-03-02T03:32:23.818Z,19.90
2023-03-02T03:34:50.236Z,16.90
2023-03-02T03:37:17.434Z,18.42
2023-03-02T03:39:44.011Z,15.65
2023-03-02T03:42:10.240Z,17.98
2023-03-02T03:44:36.535Z,15.35
2023-03-02T03:47:03.076Z,19.15
2023-03-02T03:49:29.304Z,16.20
2023-03-02T03:51:55.744Z,16.20
2023-03-02T03:54:22.265Z,18.88
2023-03-02T03:56:49.541Z,17.50
2023-03-02T03:59:17.893Z,18.27
2023-03-02T04:01:45.890Z,18.08
2023-03-02T04:04:20.489Z,16.00
2023-03-02T04:06:46.803Z,17.80
2023-03-02T04:09:15.240Z,16.52
2023-03-02T04:11:42.514Z,15.73
2023-03-02T04:14:09.462Z,19.85
2023-03-02T04:16:36.630Z,16.30
2023-03-02T04:19:03.471Z,17.08
2023-03-02T04:21:29.876Z,16.33
2023-03-02T04:23:56.268Z,16.08
2023-03-02T04:26:22.533Z,17.52
2023-03-02T04:28:50.753Z,15.70
2023-03-02T04:31:17.400Z,17.85
2023-03-02T04:33:43.708Z,18.25
2023-03-02T04:36:10.047Z,17.17
2023-03-02T04:38:36.374Z,20.80
2023-03-02T04:41:02.652Z,16.88
2023-03-02T04:43:29.191Z,15.43
2023-03-02T04:45:55.400Z,15.82
2023-03-02T04:48:22.125Z,17.83
2023-03-02T04:50:48.385Z,17.42
2023-03-02T04:53:14.779Z,18.08
2023-03-02T04:55:41.310Z,17.17
2023-03-02T04:58:07.918Z,18.10
2023-03-02T05:00:35.193Z,17.08
2023-03-02T05:03:02.241Z,20.50
2023-03-02T05:05:28.873Z,22.52
2023-03-02T05:07:55.463Z,21.60
2023-03-02T05:10:22.002Z,19.33
2023-03-02T05:13:14.536Z,21.17
2023-03-02T05:15:40.960Z,20.65
2023-03-02T05:18:08.598Z,15.90
2023-03-02T05:20:35.416Z,19.15
2023-03-02T05:23:02.918Z,17.38
2023-03-02T05:25:30.536Z,19.40
2023-03-02T05:27:57.100Z,18.67
2023-03-02T05:30:24.191Z,21.02
2023-03-02T05:32:51.126Z,17.63
2023-03-02T05:35:17.395Z,16.90
2023-03-02T05:37:44.742Z,17.27
2023-03-02T05:40:12.375Z,16.67
2023-03-02T05:42:38.638Z,17.35
2023-03-02T05:45:05.775Z,21.33
2023-03-02T05:47:31.971Z,15.25
2023-03-02T05:49:59.167Z,17.95
2023-03-02T05:52:25.883Z,18.50
2023-03-02T05:54:52.434Z,19.10
2023-03-02T05:57:18.660Z,22.02
2023-03-02T05:59:46.355Z,18.70
2023-03-02T06:02:13.108Z,18.85
2023-03-02T06:04:42.991Z,17.83
2023-03-02T06:07:10.666Z,18.83
2023-03-02T06:09:40.677Z,17.40
2023-03-02T06:12:07.792Z,24.65
2023-03-02T06:14:34.798Z,19.48
2023-03-02T06:17:01.074Z,21.80
2023-03-02T06:19:27.288Z,22.58
2023-03-02T06:21:53.737Z,20.10
2023-03-02T06:24:19.949Z,24.27
2023-03-02T06:26:46.179Z,17.17
2023-03-02T06:29:13.261Z,22.30
2023-03-02T06:31:39.680Z,20.65
2023-03-02T06:34:05.891Z,19.15
2023-03-02T06:36:32.553Z,19.15
2023-03-02T06:38:58.991Z,22.80
2023-03-02T06:41:25.644Z,22.10
2023-03-02T06:43:51.840Z,20.10
2023-03-02T06:46:18.069Z,19.40
2023-03-02T06:48:44.293Z,22.85
2023-03-02T06:51:12.520Z,27.88
2023-03-02T06:53:38.745Z,19.65
2023-03-02T06:56:05.292Z,22.88
2023-03-02T06:58:31.541Z,19.83
2023-03-02T07:00:57.843Z,18.73
2023-03-02T07:03:24.100Z,17.70
2023-03-02T07:05:52.098Z,22.60
2023-03-02T07:08:18.340Z,22.85
2023-03-02T07:10:44.597Z,20.85
2023-03-02T07:13:10.812Z,19.35
2023-03-02T07:15:38.742Z,19.58
2023-03-02T07:18:04.966Z,16.73
2023-03-02T07:20:31.234Z,17.13
2023-03-02T07:22:57.460Z,17.10
2023-03-02T07:25:23.684Z,20.55
2023-03-02T07:27:49.909Z,20.25
2023-03-02T07:30:20.917Z,16.55
2023-03-02T07:32:50.225Z,19.15
2023-03-02T07:35:17.283Z,17.52
2023-03-02T07:37:44.148Z,18.08
2023-03-02T07:40:11.470Z,15.15
2023-03-02T07:42:38.540Z,17.10
2023-03-02T07:45:05.329Z,17.08
2023-03-02T07:47:32.073Z,15.88
2023-03-02T07:49:58.575Z,18.92
2023-03-02T07:52:24.769Z,19.23
2023-03-02T07:54:51.041Z,15.43
2023-03-02T07:57:18.059Z,17.05
2023-03-02T07:59:44.269Z,15.32
2023-03-02T08:02:12.726Z,17.00
2023-03-02T08:04:39.058Z,20.77
2023-03-02T08:07:05.304Z,16.23
2023-03-02T08:09:31.809Z,15.90
2023-03-02T08:11:58.076Z,15.48
2023-03-02T08:14:24.629Z,15.13
2023-03-02T08:16:52.160Z,13.02
2023-03-02T08:19:19.362Z,13.95
2023-03-02T08:21:45.643Z,14.02
2023-03-02T08:24:12.000Z,12.40
2023-03-02T08:26:38.778Z,13.30
2023-03-02T08:29:05.318Z,11.52
2023-03-02T08:31:31.940Z,14.52
2023-03-02T08:33:59.415Z,15.90
2023-03-02T08:36:25.894Z,11.73
2023-03-02T08:38:52.092Z,11.18
2023-03-02T08:41:20.014Z,13.23
2023-03-02T08:43:46.588Z,12.73
2023-03-02T08:46:14.093Z,11.73
2023-03-02T08:48:40.380Z,11.60
2023-03-02T08:51:08.082Z,12.90
2023-03-02T08:53:36.344Z,10.95
2023-03-02T08:56:02.972Z,11.45
2023-03-02T08:58:29.641Z,11.07
2023-03-02T09:00:55.878Z,11.35
2023-03-02T09:03:22.143Z,10.45
2023-03-02T09:05:48.414Z,12.20
2023-03-02T09:08:14.647Z,11.70
2023-03-02T09:10:40.872Z,11.27
2023-03-02T09:13:08.525Z,12.30
2023-03-02T09:15:35.069Z,10.52
2023-03-02T09:18:01.303Z,11.52
2023-03-02T09:20:27.606Z,12.68
2023-03-02T09:22:53.827Z,13.45
2023-03-02T09:25:20.181Z,12.70
2023-03-02T09:27:46.601Z,12.90
2023-03-02T09:30:13.534Z,16.30
2023-03-02T09:32:40.258Z,12.25
2023-03-02T09:35:07.028Z,11.93
2023-03-02T09:37:35.075Z,13.13
2023-03-02T09:40:01.284Z,12.55
2023-03-02T09:42:43.555Z,13.57
2023-03-02T09:45:34.052Z,13.50
2023-03-02T09:48:05.242Z,12.18
2023-03-02T09:50:39.793Z,11.88
2023-03-02T09:53:09.072Z,11.98
2023-03-02T09:55:36.284Z,9.82
2023-03-02T09:58:05.944Z,12.20
2023-03-02T10:00:37.032Z,12.57
2023-03-02T10:03:16.688Z,11.23
2023-03-02T10:05:48.379Z,10.82
2023-03-02T10:08:14.570Z,10.95
2023-03-02T10:10:44.140Z,10.05
2023-03-02T10:13:16.208Z,10.70
2023-03-02T10:16:01.124Z,9.75
2023-03-02T10:18:39.546Z,10.25
2023-03-02T10:21:22.372Z,10.55
2023-03-02T10:24:02.259Z,11.05
2023-03-02T10:26:28.486Z,9.38
2023-03-02T10:29:00.103Z,10.07
2023-03-02T10:31:28.058Z,11.98
2023-03-02T10:33:54.715Z,12.40
2023-03-02T10:36:25.406Z,12.48
2023-03-02T10:38:52.277Z,11.07
2023-03-02T10:41:26.952Z,11.23
2023-03-02T10:43:55.589Z,10.07
2023-03-02T10:46:21.886Z,11.77
2023-03-02T10:48:49.946Z,9.35
2023-03-02T10:51:24.210Z,9.00
2023-03-02T10:53:50.642Z,9.98
2023-03-02T10:56:21.194Z,11.98
2023-03-02T10:58:47.474Z,10.00
2023-03-02T11:01:18.422Z,10.32
2023-03-02T11:03:55.263Z,9.57
2023-03-02T11:06:22.562Z,11.88
2023-03-02T11:09:05.080Z,11.48
2023-03-02T11:11:32.207Z,11.95
2023-03-02T11:14:15.668Z,11.00
2023-03-02T11:16:41.922Z,10.93
2023-03-02T11:19:13.550Z,11.32
2023-03-02T11:21:51.603Z,12.13
2023-03-02T11:24:23.604Z,10.98
2023-03-02T11:27:12.929Z,13.20
2023-03-02T11:29:47.636Z,11.20
2023-03-02T11:32:25.258Z,13.48
2023-03-02T11:35:02.667Z,11.18
2023-03-02T11:37:37.904Z,10.77
2023-03-02T11:40:18.958Z,10.40
2023-03-02T11:42:45.624Z,8.98
2023-03-02T11:45:15.414Z,9.93
2023-03-02T11:47:51.528Z,8.98
2023-03-02T11:50:20.591Z,9.60
2023-03-02T11:52:49.111Z,10.18
2023-03-02T11:55:23.333Z,10.27
2023-03-02T11:57:52.121Z,12.35
2023-03-02T12:00:30.335Z,10.10
2023-03-02T12:03:04.772Z,11.25
2023-03-02T12:05:34.843Z,10.55
2023-03-02T12:08:27.188Z,8.93
2023-03-02T12:11:04.280Z,9.32
2023-03-02T12:13:32.709Z,8.73
2023-03-02T12:15:59.052Z,8.35
2023-03-02T12:18:25.313Z,8.10
2023-03-02T12:21:05.303Z,10.32
2023-03-02T12:23:32.977Z,10.05
2023-03-02T12:26:04.165Z,12.43
2023-03-02T12:31:01.157Z,12.43
2023-03-02T12:33:27.381Z,9.65
2023-03-02T12:36:02.028Z,11.10
2023-03-02T12:38:30.754Z,10.80
2023-03-02T12:41:07.257Z,10.23
2023-03-02T12:43:34.686Z,12.48
2023-03-02T12:46:13.619Z,9.85
2023-03-02T12:48:58.780Z,11.60
2023-03-02T12:51:29.680Z,9.45
2023-03-02T12:54:02.731Z,9.73
2023-03-02T12:56:28.953Z,10.50
2023-03-02T12:58:55.236Z,11.93
2023-03-02T13:01:22.843Z,9.88
2023-03-02T13:03:49.156Z,9.75
2023-03-02T13:06:16.092Z,10.65
2023-03-02T13:08:43.869Z,11.75
2023-03-02T13:11:10.365Z,9.02
2023-03-02T13:13:41.166Z,9.80
2023-03-02T13:16:19.240Z,13.02
2023-03-02T13:18:45.792Z,11.82
2023-03-02T13:21:13.767Z,10.57
2023-03-02T13:23:47.369Z,9.05
2023-03-02T13:26:33.786Z,9.50
2023-03-02T13:29:04.951Z,7.90
2023-03-02T13:31:32.067Z,12.55
2023-03-02T13:33:58.994Z,10.90
2023-03-02T13:36:35.538Z,10.30
2023-03-02T13:39:02.123Z,10.45
2023-03-02T13:41:29.948Z,8.32
2023-03-02T13:43:56.804Z,8.45
2023-03-02T13:46:33.485Z,7.93
2023-03-02T13:49:10.223Z,10.02
2023-03-02T13:51:38.990Z,8.65
2023-03-02T13:54:06.411Z,8.82
2023-03-02T13:56:43.858Z,10.73
2023-03-02T13:59:14.543Z,9.00
2023-03-02T14:01:49.560Z,10.73
2023-03-02T14:04:17.740Z,9.77
2023-03-02T14:06:44.620Z,9.23
2023-03-02T14:09:11.195Z,9.88
2023-03-02T14:11:39.985Z,12.30
2023-03-02T14:14:06.790Z,11.68
2023-03-02T14:16:35.942Z,14.75
2023-03-02T14:19:02.159Z,10.93
2023-03-02T14:21:28.478Z,11.68
2023-03-02T14:23:55.182Z,9.93
2023-03-02T14:26:47.702Z,11.07
2023-03-02T14:29:13.890Z,8.45
2023-03-02T14:31:40.096Z,10.32
2023-03-02T14:34:06.281Z,10.45
2023-03-02T14:36:33.779Z,10.75
2023-03-02T14:39:01.641Z,8.30
2023-03-02T14:41:28.373Z,13.25
2023-03-02T14:43:54.772Z,13.13
2023-03-02T14:46:21.327Z,10.82
2023-03-02T14:48:47.830Z,9.55
2023-03-02T14:51:20.109Z,10.90
2023-03-02T14:53:47.242Z,12.63
2023-03-02T14:56:14.059Z,9.18
2023-03-02T14:58:40.286Z,11.60
2023-03-02T15:01:06.535Z,8.52
2023-03-02T15:03:32.878Z,8.88
2023-03-02T15:06:01.652Z,9.10
2023-03-02T15:08:28.932Z,8.13
2023-03-02T15:10:55.380Z,8.13
2023-03-02T15:13:21.674Z,7.78
2023-03-02T15:15:48.614Z,8.85
2023-03-02T15:18:16.862Z,8.27
2023-03-02T15:20:43.085Z,9.57
2023-03-02T15:23:09.318Z,12.38
2023-03-02T15:25:35.678Z,8.70
2023-03-02T15:28:03.880Z,9.57
2023-03-02T15:30:30.492Z,8.63
2023-03-02T15:32:59.805Z,9.13
2023-03-02T15:35:27.302Z,8.80
2023-03-02T15:37:54.054Z,8.85
2023-03-02T15:40:20.253Z,10.63
2023-03-02T15:42:46.522Z,8.50
2023-03-02T15:45:12.760Z,8.65
2023-03-02T15:47:39.057Z,8.63
2023-03-02T15:50:05.497Z,8.38
2023-03-02T15:52:31.762Z,8.90
2023-03-02T15:54:58.049Z,20.85
2023-03-02T15:57:24.273Z,8.65
2023-03-02T15:59:50.494Z,8.45
2023-03-02T16:02:16.779Z,9.35
2023-03-02T16:04:43.074Z,7.07
2023-03-02T16:07:09.281Z,6.80
2023-03-02T16:09:35.543Z,8.20
2023-03-02T16:12:01.872Z,9.60
2023-03-02T16:14:28.056Z,14.25
2023-03-02T16:16:54.335Z,7.63
2023-03-02T16:19:20.669Z,9.38
2023-03-02T16:21:47.537Z,7.50
2023-03-02T16:24:15.960Z,8.02
2023-03-02T16:26:42.451Z,15.57
2023-03-02T16:29:08.781Z,6.95
2023-03-02T16:31:37.629Z,6.38
2023-03-02T16:34:07.234Z,7.18
2023-03-02T16:36:34.133Z,7.95
2023-03-02T16:39:00.353Z,7.55
2023-03-02T16:41:26.591Z,6.53
2023-03-02T16:43:56.573Z,7.97
2023-03-02T16:46:23.731Z,7.13
2023-03-02T16:48:50.492Z,7.80
2023-03-02T16:51:17.892Z,7.13
2023-03-02T16:53:44.166Z,8.73
2023-03-02T16:56:11.341Z,7.00
2023-03-02T16:58:39.607Z,7.07
2023-03-02T17:01:07.162Z,9.20
2023-03-02T17:03:33.758Z,10.02
2023-03-02T17:06:00.026Z,5.07
2023-03-02T17:08:26.266Z,6.85
2023-03-02T17:10:52.503Z,7.70
2023-03-02T17:13:18.811Z,9.75
2023-03-02T17:15:45.081Z,6.07
2023-03-02T17:18:11.393Z,7.50
2023-03-02T17:20:37.820Z,9.25
2023-03-02T17:23:04.291Z,6.82
2023-03-02T17:25:30.577Z,8.38
2023-03-02T17:27:57.084Z,9.02
2023-03-02T17:30:23.311Z,8.23
2023-03-02T17:32:49.606Z,7.10
2023-03-02T17:35:15.865Z,8.07
2023-03-02T17:37:42.403Z,8.82
2023-03-02T17:40:12.405Z,10.75
2023-03-02T17:42:39.347Z,7.78
2023-03-02T17:45:06.129Z,7.47
2023-03-02T17:47:32.964Z,8.45
2023-03-02T17:49:59.377Z,9.52
2023-03-02T17:52:25.756Z,9.63
2023-03-02T17:54:54.106Z,8.57
2023-03-02T17:57:22.502Z,9.20
2023-03-02T17:59:50.294Z,9.80
2023-03-02T18:02:17.544Z,10.35
2023-03-02T18:04:45.352Z,9.35
2023-03-02T18:07:12.127Z,8.95
2023-03-02T18:09:38.649Z,8.70
2023-03-02T18:12:05.025Z,7.00
2023-03-02T18:14:31.342Z,8.27
2023-03-02T18:16:57.589Z,7.82
2023-03-02T18:19:23.870Z,8.73
2023-03-02T18:21:50.070Z,7.32
2023-03-02T18:24:16.294Z,9.90
2023-03-02T18:26:42.517Z,8.40
2023-03-02T18:29:08.727Z,8.65
2023-03-02T18:31:35.056Z,9.27
2023-03-02T18:34:01.605Z,9.20
2023-03-02T18:36:27.883Z,11.90
2023-03-02T18:38:54.420Z,9.00
2023-03-02T18:41:21.942Z,10.25
2023-03-02T18:43:49.006Z,8.30
2023-03-02T18:46:19.839Z,8.18
2023-03-02T18:48:46.704Z,7.90
2023-03-02T18:51:13.319Z,10.65
2023-03-02T18:53:40.892Z,9.90
2023-03-02T18:56:07.237Z,9.70
2023-03-02T18:58:34.681Z,9.68
2023-03-02T19:01:01.388Z,9.65
2023-03-02T19:03:27.989Z,8.77
2023-03-02T19:05:57.642Z,11.88
2023-03-02T19:08:24.590Z,9.90
2023-03-02T19:10:51.408Z,10.73
2023-03-02T19:13:18.186Z,9.82
2023-03-02T19:15:44.878Z,13.75
2023-03-02T19:18:15.984Z,13.75
2023-03-02T19:20:43.068Z,12.90
2023-03-02T19:23:09.297Z,15.15
2023-03-02T19:25:35.628Z,12.73
2023-03-02T19:28:02.108Z,17.58
2023-03-02T19:30:28.422Z,18.00
2023-03-02T19:32:54.650Z,17.88
2023-03-02T19:35:22.253Z,15.50
2023-03-02T19:37:48.534Z,14.07
2023-03-02T19:40:17.166Z,13.70
2023-03-02T19:42:45.310Z,15.65
2023-03-02T19:45:13.959Z,17.70
2023-03-02T19:47:40.219Z,15.57
2023-03-02T19:50:06.794Z,16.25
2023-03-02T19:52:33.302Z,16.92
2023-03-02T19:54:59.632Z,18.10
2023-03-02T19:57:25.894Z,18.98
2023-03-02T19:59:52.153Z,19.60
2023-03-02T20:02:19.544Z,19.75
2023-03-02T20:04:46.712Z,19.73
2023-03-02T20:07:13.578Z,21.10
2023-03-02T20:09:42.113Z,19.17
2023-03-02T20:12:09.114Z,21.55
2023-03-02T20:14:36.011Z,18.77
2023-03-02T20:17:03.376Z,19.50
2023-03-02T20:19:29.664Z,24.10
2023-03-02T20:21:55.893Z,23.38
2023-03-02T20:24:22.106Z,23.63
2023-03-02T20:26:48.387Z,23.90
2023-03-02T20:29:14.654Z,23.88
2023-03-02T20:31:40.922Z,25.00
2023-03-02T20:34:08.714Z,23.77
2023-03-02T20:36:35.838Z,25.85
2023-03-02T20:39:06.039Z,26.85
2023-03-02T20:41:32.648Z,26.58
2023-03-02T20:43:59.107Z,27.88
2023-03-02T20:46:30.709Z,25.55
2023-03-02T20:48:57.030Z,25.88
2023-03-02T20:51:23.276Z,27.42
2023-03-02T20:53:50.076Z,26.98
2023-03-02T20:56:18.118Z,26.27
2023-03-02T20:58:44.585Z,26.65
2023-03-02T21:01:11.578Z,27.85
2023-03-02T21:03:38.479Z,27.20
2023-03-02T21:06:05.336Z,26.85
2023-03-02T21:08:34.184Z,28.00
2023-03-02T21:11:00.453Z,28.42
2023-03-02T21:13:26.882Z,28.00
2023-03-02T21:15:53.349Z,26.92
2023-03-02T21:18:19.715Z,30.55
2023-03-02T21:20:45.959Z,27.10
2023-03-02T21:23:12.633Z,26.75
2023-03-02T21:25:41.185Z,31.02
2023-03-02T21:28:08.555Z,29.00
2023-03-02T21:30:35.044Z,29.17
2023-03-02T21:33:01.918Z,31.48
2023-03-02T21:35:28.136Z,30.48
2023-03-02T21:37:56.976Z,29.05
2023-03-02T21:40:27.796Z,31.17
2023-03-02T21:42:54.497Z,29.42
2023-03-02T21:45:22.653Z,28.27
2023-03-02T21:47:49.255Z,32.22
2023-03-02T21:50:17.113Z,32.97
2023-03-02T21:52:43.526Z,30.80
2023-03-02T21:55:10.544Z,30.63
2023-03-02T21:57:36.841Z,28.58
2023-03-02T22:00:04.590Z,32.08
2023-03-02T22:02:31.150Z,29.83
2023-03-02T22:04:57.366Z,30.98
2023-03-02T22:07:23.680Z,30.00
2023-03-02T22:09:49.915Z,33.80
2023-03-02T22:12:16.178Z,32.22
2023-03-02T22:14:42.540Z,32.65
2023-03-02T22:17:17.171Z,35.03
2023-03-02T22:19:43.899Z,34.13
2023-03-02T22:22:23.787Z,31.95
2023-03-02T22:24:50.799Z,34.45
2023-03-02T22:27:20.040Z,34.03
2023-03-02T22:29:47.043Z,35.33
2023-03-02T22:32:21.219Z,35.85
2023-03-02T22:34:49.199Z,36.63
2023-03-02T22:37:19.906Z,39.25
2023-03-02T22:39:46.813Z,36.40
2023-03-02T22:42:13.010Z,34.65
2023-03-02T22:44:39.239Z,36.45
2023-03-02T22:47:12.212Z,38.15
2023-03-02T22:49:38.446Z,39.20
2023-03-02T22:52:11.190Z,38.60
2023-03-02T22:54:37.727Z,37.22
2023-03-02T22:57:13.588Z,42.30
2023-03-02T22:59:39.835Z,39.47
2023-03-02T23:02:14.644Z,38.35
2023-03-02T23:04:41.195Z,37.25
2023-03-02T23:07:16.133Z,39.50
2023-03-02T23:09:42.336Z,41.22
2023-03-02T23:12:20.483Z,39.42
2023-03-02T23:14:48.836Z,39.17
2023-03-02T23:17:18.825Z,40.17
2023-03-02T23:19:45.057Z,40.28
2023-03-02T23:22:11.296Z,42.70
2023-03-02T23:24:37.504Z,47.90
2023-03-02T23:27:03.800Z,44.53
2023-03-02T23:29:30.190Z,44.25
2023-03-02T23:31:57.179Z,49.13
2023-03-02T23:34:24.205Z,45.47
2023-03-02T23:36:50.443Z,46.47
2023-03-02T23:39:17.467Z,47.17
2023-03-02T23:41:43.792Z,51.53
2023-03-02T23:44:10.101Z,43.78
2023-03-02T23:46:36.378Z,43.70
2023-03-02T23:49:02.700Z,44.53
2023-03-02T23:51:28.924Z,42.30
2023-03-02T23:53:55.916Z,41.47
2023-03-02T23:56:22.212Z,40.38
2023-03-02T23:58:48.702Z,45.97
